Time;durP1;ratioP1;P1;durP2;ratioP2;P2;SDS_P1;SDS_P2;PMS_P1;PMS_P2;Temp;Humidity;BMP_temperature;BMP_pressure;BME280_temperature;BME280_humidity;BME280_pressure;Samples;Min_cycle;Max_cycle;Signal;HPM_P1;HPM_P2
2023/05/28 00:00:10;;;;;;;10.02;4.75;;;;;;;20.21;51.44;102004.06;6123475;23;20033;-56
2023/05/28 00:02:37;;;;;;;10.65;4.70;;;;;;;20.20;51.43;102004.19;6123714;23;20002;-56
2023/05/28 00:05:03;;;;;;;11.88;4.70;;;;;;;20.20;51.75;102002.38;6124045;23;20006;-56
2023/05/28 00:07:29;;;;;;;8.15;4.15;;;;;;;20.21;51.28;102005.91;6123039;23;20010;-56
2023/05/28 00:09:55;;;;;;;7.88;4.78;;;;;;;20.20;51.50;101998.78;6123375;23;20017;-56
2023/05/28 00:12:21;;;;;;;7.93;4.40;;;;;;;20.19;50.82;102005.19;6123332;23;20029;-56
2023/05/28 00:14:47;;;;;;;8.52;4.65;;;;;;;20.19;51.66;101997.09;6123623;23;20056;-56
2023/05/28 00:17:13;;;;;;;7.30;4.47;;;;;;;20.18;51.53;101996.22;6123286;23;20088;-55
2023/05/28 00:19:38;;;;;;;8.23;3.75;;;;;;;20.18;51.44;101989.94;6123400;23;20012;-56
2023/05/28 00:22:04;;;;;;;9.60;4.10;;;;;;;20.18;51.44;101984.53;6123752;23;20002;-56
2023/05/28 00:24:30;;;;;;;8.43;4.38;;;;;;;20.17;51.17;101983.69;6124103;23;20076;-56
2023/05/28 00:26:56;;;;;;;6.85;4.38;;;;;;;20.17;51.21;101983.69;6122890;23;20357;-55
2023/05/28 00:29:21;;;;;;;6.70;4.28;;;;;;;20.17;51.16;101986.38;6123185;23;20052;-56
2023/05/28 00:31:47;;;;;;;9.52;4.63;;;;;;;20.16;51.32;101987.38;6123175;23;20026;-56
2023/05/28 00:34:12;;;;;;;5.53;4.65;;;;;;;20.16;50.90;101992.78;6123178;23;20067;-56
2023/05/28 00:36:37;;;;;;;7.22;4.15;;;;;;;20.16;51.15;101997.34;6122910;23;20017;-56
2023/05/28 00:39:05;;;;;;;6.18;4.18;;;;;;;20.16;50.78;102002.75;6124075;23;20088;-55
2023/05/28 00:41:31;;;;;;;6.75;3.88;;;;;;;20.15;50.92;102004.59;6123817;23;20010;-56
2023/05/28 00:43:56;;;;;;;6.63;4.32;;;;;;;20.14;51.34;101994.75;6123135;23;20001;-55
2023/05/28 00:46:23;;;;;;;6.82;4.18;;;;;;;20.15;51.08;102006.47;6123089;23;20006;-55
2023/05/28 00:48:50;;;;;;;6.18;4.07;;;;;;;20.13;51.04;102005.72;6122978;23;20010;-55
2023/05/28 00:51:16;;;;;;;7.82;4.05;;;;;;;20.12;50.79;101996.75;6122966;23;20389;-56
2023/05/28 00:53:42;;;;;;;7.30;4.20;;;;;;;20.12;51.01;101991.31;6123063;23;20452;-56
2023/05/28 00:56:10;;;;;;;9.30;5.00;;;;;;;20.12;50.76;101996.75;6123037;23;20014;-56
2023/05/28 00:58:39;;;;;;;11.55;5.00;;;;;;;20.11;50.52;101989.63;6123310;23;20345;-56
2023/05/28 01:01:06;;;;;;;6.47;4.40;;;;;;;20.12;50.51;101985.91;6123603;23;20069;-56
2023/05/28 01:03:32;;;;;;;8.32;4.40;;;;;;;20.10;51.40;101982.50;6123959;23;20006;-56
2023/05/28 01:06:01;;;;;;;5.22;4.00;;;;;;;20.10;50.62;101991.50;6123082;23;20326;-56
2023/05/28 01:08:27;;;;;;;8.65;4.53;;;;;;;20.09;50.84;101994.31;6123255;23;20013;-55
2023/05/28 01:10:52;;;;;;;6.72;4.15;;;;;;;20.09;50.77;101991.63;6123145;23;20017;-56
2023/05/28 01:13:18;;;;;;;6.10;4.47;;;;;;;20.09;50.40;101987.06;6122881;23;20329;-56
2023/05/28 01:15:45;;;;;;;6.85;4.47;;;;;;;20.09;50.33;101991.63;6122905;23;20333;-56
2023/05/28 01:18:11;;;;;;;8.00;4.32;;;;;;;20.08;50.75;101982.63;6122820;23;20018;-56
2023/05/28 01:20:37;;;;;;;7.30;4.63;;;;;;;20.07;50.85;101977.38;6123546;23;20010;-55
2023/05/28 01:23:09;;;;;;;7.45;4.32;;;;;;;20.08;50.46;101981.78;6122882;23;20337;-56
2023/05/28 01:25:37;;;;;;;7.68;4.65;;;;;;;20.07;50.29;101988.19;6123699;23;20006;-55
2023/05/28 01:28:12;;;;;;;7.60;4.95;;;;;;;20.07;50.64;101991.75;6122966;23;20027;-55
2023/05/28 01:30:37;;;;;;;8.77;4.70;;;;;;;20.06;50.41;101991.88;6123472;23;20088;-56
2023/05/28 01:33:03;;;;;;;7.38;4.65;;;;;;;20.06;50.64;101995.41;6123168;23;20030;-55
2023/05/28 01:35:28;;;;;;;5.93;4.03;;;;;;;20.06;50.17;101991.88;6122908;23;20072;-55
2023/05/28 01:37:57;;;;;;;6.53;4.35;;;;;;;20.06;50.46;101989.16;6122659;23;20037;-55
2023/05/28 01:40:24;;;;;;;8.57;4.53;;;;;;;20.05;50.49;101995.56;6123004;23;20010;-56
2023/05/28 01:42:51;;;;;;;5.63;4.53;;;;;;;20.05;50.20;102000.97;6122971;23;20009;-55
2023/05/28 01:45:17;;;;;;;6.35;4.72;;;;;;;20.04;50.17;102000.09;6122874;23;20032;-56
2023/05/28 01:47:43;;;;;;;7.93;4.60;;;;;;;20.04;50.18;101993.84;6122861;23;20010;-56
2023/05/28 01:50:09;;;;;;;7.55;4.75;;;;;;;20.04;50.49;101996.56;6123202;23;20006;-56
2023/05/28 01:52:34;;;;;;;7.10;4.30;;;;;;;20.03;50.37;101992.13;6123232;23;20017;-55
2023/05/28 01:55:00;;;;;;;8.30;4.70;;;;;;;20.03;50.27;101986.72;6122855;23;20006;-55
2023/05/28 01:57:25;;;;;;;5.78;4.43;;;;;;;20.02;50.16;101980.47;6122771;23;20006;-55
2023/05/28 01:59:51;;;;;;;7.18;4.53;;;;;;;20.02;50.00;101980.47;6122846;23;20014;-55
2023/05/28 02:02:16;;;;;;;6.75;4.70;;;;;;;20.02;50.56;101979.59;6122910;23;20436;-56
2023/05/28 02:04:41;;;;;;;7.28;4.50;;;;;;;20.01;50.03;101986.00;6122746;23;20040;-55
2023/05/28 02:07:07;;;;;;;7.22;4.65;;;;;;;20.01;50.32;101983.28;6123469;23;20013;-55
2023/05/28 02:09:32;;;;;;;5.68;4.55;;;;;;;20.01;50.44;101986.00;6123587;23;20096;-55
2023/05/28 02:12:02;;;;;;;5.85;4.05;;;;;;;20.00;50.37;101971.63;6124351;23;20010;-55
2023/05/28 02:14:28;;;;;;;5.55;4.45;;;;;;;20.00;50.52;101970.78;6124748;23;20013;-56
2023/05/28 02:16:53;;;;;;;6.35;4.43;;;;;;;20.00;50.87;101962.66;6124339;23;20445;-55
2023/05/28 02:19:19;;;;;;;5.80;4.25;;;;;;;19.99;50.26;101955.53;6124312;23;20014;-56
2023/05/28 02:21:45;;;;;;;8.18;4.72;;;;;;;19.99;50.39;101963.63;6124173;23;20010;-56
2023/05/28 02:24:10;;;;;;;5.55;4.10;;;;;;;19.98;49.96;101957.38;6124435;23;20013;-55
2023/05/28 02:26:36;;;;;;;7.63;4.43;;;;;;;19.98;50.88;101960.09;6125023;23;20010;-55
2023/05/28 02:29:02;;;;;;;7.30;4.28;;;;;;;19.99;50.59;101963.63;6124076;23;20045;-56
2023/05/28 02:31:27;;;;;;;6.88;4.22;;;;;;;19.98;50.06;101961.94;6124395;23;20388;-55
2023/05/28 02:33:53;;;;;;;6.22;3.97;;;;;;;19.98;50.26;101961.94;6124232;23;20016;-56
2023/05/28 02:36:18;;;;;;;8.70;4.47;;;;;;;19.97;50.03;101962.91;6124258;23;20014;-55
2023/05/28 02:38:43;;;;;;;5.45;3.92;;;;;;;19.97;50.33;101976.44;6124327;23;20444;-55
2023/05/28 02:41:09;;;;;;;8.25;4.45;;;;;;;19.94;50.22;101966.75;6125135;23;20399;-55
2023/05/28 02:43:35;;;;;;;5.70;4.90;;;;;;;19.95;50.56;101964.91;6124494;23;20006;-56
2023/05/28 02:46:00;;;;;;;6.38;4.20;;;;;;;19.95;50.01;101964.91;6124200;23;20986;-55
2023/05/28 02:48:26;;;;;;;4.88;4.40;;;;;;;19.94;50.10;101969.44;6124085;23;20006;-55
2023/05/28 02:50:52;;;;;;;6.90;4.40;;;;;;;19.95;50.37;101967.59;6124328;23;20056;-56
2023/05/28 02:53:20;;;;;;;6.90;4.15;;;;;;;19.93;49.73;101967.72;6123909;23;20010;-55
2023/05/28 02:55:45;;;;;;;6.55;4.15;;;;;;;19.94;49.83;101965.91;6123952;23;20081;-56
2023/05/28 02:58:11;;;;;;;7.13;4.57;;;;;;;19.91;50.30;101973.28;6124721;23;20088;-55
2023/05/28 03:00:36;;;;;;;5.15;4.30;;;;;;;19.91;49.97;101967.88;6123942;23;20006;-55
2023/05/28 03:03:01;;;;;;;6.50;4.25;;;;;;;19.91;49.91;101972.41;6124005;23;20006;-56
2023/05/28 03:05:27;;;;;;;5.30;4.00;;;;;;;19.91;50.04;101977.81;6123824;23;20013;-55
2023/05/28 03:07:52;;;;;;;7.50;4.50;;;;;;;19.90;50.08;101974.25;6123808;23;20013;-55
2023/05/28 03:10:18;;;;;;;7.90;4.47;;;;;;;19.91;49.97;101975.13;6124068;23;20006;-56
2023/05/28 03:12:43;;;;;;;5.00;4.00;;;;;;;19.89;49.92;101968.97;6123828;23;20017;-55
2023/05/28 03:15:09;;;;;;;9.38;4.10;;;;;;;19.88;49.49;101965.44;6124477;23;20012;-55
2023/05/28 03:17:34;;;;;;;6.43;4.40;;;;;;;19.89;49.99;101979.78;6123910;23;20337;-55
2023/05/28 03:19:59;;;;;;;6.53;3.88;;;;;;;19.88;49.69;101970.84;6123657;23;20006;-55
2023/05/28 03:22:25;;;;;;;4.63;3.92;;;;;;;19.88;49.75;101973.53;6123470;23;20061;-55
2023/05/28 03:24:51;;;;;;;6.13;3.88;;;;;;;19.87;49.82;101971.81;6124096;23;20351;-55
2023/05/28 03:27:16;;;;;;;5.45;3.90;;;;;;;19.88;49.61;101972.69;6123526;23;20026;-55
2023/05/28 03:29:41;;;;;;;7.18;4.13;;;;;;;19.86;49.76;101974.66;6124426;23;20010;-55
2023/05/28 03:32:07;;;;;;;6.57;3.97;;;;;;;19.87;49.99;101969.09;6123509;23;20432;-55
2023/05/28 03:34:33;;;;;;;4.75;3.35;;;;;;;19.85;49.46;101968.38;6124104;23;20447;-55
2023/05/28 03:36:58;;;;;;;7.00;4.20;;;;;;;19.85;49.95;101962.13;6123502;23;20013;-56
2023/05/28 03:39:24;;;;;;;5.95;4.00;;;;;;;19.84;49.80;101964.00;6123701;23;20341;-55
2023/05/28 03:41:49;;;;;;;5.55;3.63;;;;;;;19.84;49.08;101980.19;6123894;23;20021;-55
2023/05/28 03:44:17;;;;;;;6.50;4.10;;;;;;;19.84;49.34;101977.50;6123740;23;20006;-56
2023/05/28 03:46:42;;;;;;;5.25;3.88;;;;;;;19.83;49.09;101981.19;6098675;23;20037;-56
2023/05/28 03:49:08;;;;;;;6.47;3.67;;;;;;;19.82;49.35;101987.59;6123584;23;20014;-55
2023/05/28 03:51:33;;;;;;;4.85;3.60;;;;;;;19.84;49.46;101982.06;6123329;23;20095;-55
2023/05/28 03:53:58;;;;;;;8.32;4.30;;;;;;;19.83;49.66;101986.56;6123416;23;20009;-55
2023/05/28 03:56:24;;;;;;;7.60;3.72;;;;;;;19.83;49.72;101985.72;6123610;23;20337;-56
2023/05/28 03:58:49;;;;;;;5.47;3.90;;;;;;;19.83;49.45;101985.72;6123403;23;20014;-55
2023/05/28 04:01:15;;;;;;;5.80;4.20;;;;;;;19.82;49.59;101984.88;6123302;23;20010;-56
2023/05/28 04:03:40;;;;;;;5.72;3.88;;;;;;;19.81;49.33;101991.25;6124401;23;20037;-55
2023/05/28 04:06:06;;;;;;;7.32;4.10;;;;;;;19.82;49.71;101989.41;6123236;23;20425;-56
2023/05/28 04:08:32;;;;;;;6.47;3.80;;;;;;;19.81;49.08;101993.13;6123547;23;20433;-56
2023/05/28 04:10:57;;;;;;;5.60;4.10;;;;;;;19.81;49.18;101999.38;6123489;23;20025;-55
2023/05/28 04:13:23;;;;;;;6.57;3.70;;;;;;;19.80;49.06;101992.28;6123282;23;20006;-55
2023/05/28 04:15:48;;;;;;;6.13;3.88;;;;;;;19.80;49.03;101994.97;6123386;23;20372;-56
2023/05/28 04:18:13;;;;;;;7.05;3.80;;;;;;;19.81;49.34;101987.72;6124190;23;20009;-55
2023/05/28 04:20:39;;;;;;;5.65;3.85;;;;;;;19.80;48.97;101994.97;6123351;23;20018;-55
2023/05/28 04:23:04;;;;;;;5.38;3.53;;;;;;;19.79;49.19;102001.34;6123448;23;20773;-55
2023/05/28 04:25:30;;;;;;;6.40;3.78;;;;;;;19.79;49.45;101990.53;6123435;23;20033;-55
2023/05/28 04:27:56;;;;;;;5.65;3.90;;;;;;;19.79;48.88;101995.09;6123024;23;20076;-56
2023/05/28 04:30:23;;;;;;;5.47;3.72;;;;;;;19.78;49.12;101994.25;6123056;23;20017;-56
2023/05/28 04:32:52;;;;;;;4.88;3.50;;;;;;;19.77;49.18;102006.03;6097075;23;20092;-56
2023/05/28 04:35:18;;;;;;;5.72;3.85;;;;;;;19.77;48.94;101997.91;6123381;23;20026;-56
2023/05/28 04:37:44;;;;;;;7.93;3.65;;;;;;;19.78;48.89;102013.16;6124231;23;20334;-55
2023/05/28 04:40:13;;;;;;;5.55;3.50;;;;;;;19.77;48.19;102007.88;6123071;23;20006;-56
2023/05/28 04:42:40;;;;;;;3.63;2.97;;;;;;;19.78;47.97;102010.47;6123408;23;20002;-55
2023/05/28 04:45:07;;;;;;;5.57;3.13;;;;;;;19.77;48.21;102008.72;6123296;23;20010;-55
2023/05/28 04:47:33;;;;;;;4.45;3.17;;;;;;;19.77;48.32;102011.44;6123111;23;20009;-55
2023/05/28 04:49:59;;;;;;;5.78;3.45;;;;;;;19.76;48.52;102007.00;6122925;23;20334;-55
2023/05/28 04:52:24;;;;;;;5.55;3.30;;;;;;;19.77;48.61;102011.44;6122754;23;20006;-56
2023/05/28 04:54:50;;;;;;;5.13;3.40;;;;;;;19.77;48.63;102011.44;6123415;23;20013;-56
2023/05/28 04:57:15;;;;;;;5.32;3.38;;;;;;;19.77;48.95;102010.59;6123682;23;20009;-55
2023/05/28 04:59:41;;;;;;;7.50;3.40;;;;;;;19.77;48.70;102011.44;6122989;23;20084;-56
2023/05/28 05:02:07;;;;;;;4.75;3.30;;;;;;;19.77;48.67;102019.53;6122968;23;20535;-56
2023/05/28 05:04:32;;;;;;;4.65;3.25;;;;;;;19.77;48.98;102011.44;6122873;23;20377;-56
2023/05/28 05:06:57;;;;;;;5.15;3.10;;;;;;;19.78;48.49;102012.28;6123018;23;20381;-55
2023/05/28 05:09:23;;;;;;;5.20;3.10;;;;;;;19.78;48.63;102023.97;6123188;23;20006;-55
2023/05/28 05:11:49;;;;;;;6.10;3.63;;;;;;;19.78;48.80;102020.38;6122813;23;20017;-55
2023/05/28 05:14:14;;;;;;;6.38;3.50;;;;;;;19.78;49.05;102018.56;6123588;23;20010;-55
2023/05/28 05:16:40;;;;;;;11.20;3.80;;;;;;;19.77;49.11;102008.72;6122700;23;20010;-55
2023/05/28 05:19:06;;;;;;;6.68;3.70;;;;;;;19.76;49.40;102012.41;6123168;23;20020;-55
2023/05/28 05:21:31;;;;;;;3.97;2.88;;;;;;;19.77;49.46;102013.28;6122920;23;20066;-55
2023/05/28 05:23:57;;;;;;;4.70;3.15;;;;;;;19.78;49.48;102006.88;6123331;23;20029;-55
2023/05/28 05:26:22;;;;;;;6.78;3.55;;;;;;;19.78;49.50;102020.38;6123302;23;20429;-56
2023/05/28 05:28:48;;;;;;;6.63;3.30;;;;;;;19.78;50.38;102023.09;6123458;23;20026;-55
2023/05/28 05:31:13;;;;;;;7.13;3.40;;;;;;;19.78;50.58;102023.97;6123179;23;20014;-56
2023/05/28 05:33:40;;;;;;;5.00;3.50;;;;;;;19.78;50.67;102026.69;6123180;23;20421;-56
2023/05/28 05:36:07;;;;;;;7.72;3.10;;;;;;;19.78;50.42;102031.19;6122513;23;20002;-56
2023/05/28 05:38:32;;;;;;;5.43;3.58;;;;;;;19.78;50.80;102026.69;6122914;23;20010;-55
2023/05/28 05:40:58;;;;;;;4.68;3.35;;;;;;;19.78;50.36;102037.47;6123244;23;20037;-55
2023/05/28 05:43:23;;;;;;;4.78;3.25;;;;;;;19.79;51.21;102041.88;6123026;23;20325;-55
2023/05/28 05:45:49;;;;;;;6.57;3.50;;;;;;;19.79;50.49;102039.19;6125353;23;20340;-56
2023/05/28 05:48:14;;;;;;;5.28;3.65;;;;;;;19.79;51.08;102039.19;6125374;23;20429;-56
2023/05/28 05:50:50;;;;;;;6.18;3.35;;;;;;;19.80;51.12;102042.72;6125010;23;20010;-56
2023/05/28 05:53:17;;;;;;;10.63;4.10;;;;;;;19.79;51.08;102032.94;6125691;23;20330;-56
2023/05/28 05:55:42;;;;;;;5.05;3.72;;;;;;;19.79;51.66;102041.88;6125347;23;20008;-56
2023/05/28 05:58:08;;;;;;;9.23;4.03;;;;;;;19.79;51.41;102039.19;6125322;23;20014;-56
2023/05/28 06:00:33;;;;;;;6.38;3.63;;;;;;;19.80;51.51;102045.44;6125082;23;20010;-55
2023/05/28 06:03:00;;;;;;;11.15;4.00;;;;;;;19.80;51.93;102040.91;6125721;23;20006;-56
2023/05/28 06:05:25;;;;;;;8.88;3.92;;;;;;;19.80;52.04;102050.84;6125593;23;20336;-55
2023/05/28 06:07:51;;;;;;;8.27;4.55;;;;;;;19.80;51.69;102038.22;6099197;23;20025;-55
2023/05/28 06:10:16;;;;;;;9.57;3.78;;;;;;;19.81;51.89;102037.22;6125688;23;20017;-56
2023/05/28 06:12:41;;;;;;;6.43;3.90;;;;;;;19.82;52.20;102032.66;6099201;23;20377;-56
2023/05/28 06:15:08;;;;;;;6.82;3.47;;;;;;;19.81;52.46;102036.34;6125189;23;20014;-56
2023/05/28 06:17:33;;;;;;;6.38;3.75;;;;;;;19.81;52.12;102042.63;6125389;23;20017;-56
2023/05/28 06:20:00;;;;;;;5.68;3.85;;;;;;;19.82;52.17;102038.06;6125075;23;20005;-55
2023/05/28 06:22:26;;;;;;;7.07;3.70;;;;;;;19.82;52.33;102033.53;6125174;23;20366;-55
2023/05/28 06:24:52;;;;;;;7.25;3.42;;;;;;;19.82;52.55;102038.06;6125316;23;20009;-56
2023/05/28 06:27:19;;;;;;;6.78;3.42;;;;;;;19.82;51.93;102032.66;6125659;23;20445;-55
2023/05/28 06:29:45;;;;;;;7.95;3.78;;;;;;;19.83;52.60;102029.81;6099284;23;20001;-56
2023/05/28 06:32:11;;;;;;;6.15;3.63;;;;;;;19.83;52.46;102019.00;6124615;23;20020;-56
2023/05/28 06:34:37;;;;;;;10.27;3.63;;;;;;;19.84;52.35;102030.69;6124116;23;20013;-56
2023/05/28 06:37:03;;;;;;;7.85;3.33;;;;;;;19.84;52.53;102031.56;6123818;23;20414;-56
2023/05/28 06:39:28;;;;;;;8.18;3.67;;;;;;;19.84;52.81;102028.84;6124134;23;20009;-56
2023/05/28 06:41:54;;;;;;;8.93;3.88;;;;;;;19.85;52.40;102032.41;6125124;23;20014;-56
2023/05/28 06:44:19;;;;;;;8.65;3.78;;;;;;;19.85;52.73;102035.97;6125689;23;20429;-56
2023/05/28 06:46:45;;;;;;;7.38;3.60;;;;;;;19.85;52.87;102033.25;6124435;23;20037;-56
2023/05/28 06:49:10;;;;;;;7.53;3.75;;;;;;;19.86;52.56;102031.44;6124781;23;20306;-56
2023/05/28 06:51:36;;;;;;;11.07;3.85;;;;;;;19.86;52.60;102024.16;6124414;23;20009;-55
2023/05/28 06:54:02;;;;;;;6.88;3.53;;;;;;;19.85;52.56;102027.84;6124418;23;20009;-56
2023/05/28 06:56:28;;;;;;;6.38;3.40;;;;;;;19.86;52.78;102024.16;6123534;23;20013;-56
2023/05/28 06:58:54;;;;;;;8.27;3.95;;;;;;;19.86;52.45;102024.16;6123760;23;20377;-55
2023/05/28 07:01:20;;;;;;;6.35;3.50;;;;;;;19.87;52.52;102022.31;6123620;23;20420;-56
2023/05/28 07:03:46;;;;;;;9.02;4.18;;;;;;;19.87;52.56;102025.03;6123234;23;20002;-56
2023/05/28 07:06:11;;;;;;;8.75;3.97;;;;;;;19.88;52.58;102030.31;6123078;23;20021;-55
2023/05/28 07:08:40;;;;;;;7.70;3.47;;;;;;;19.88;52.60;102033.00;6123202;23;20010;-56
2023/05/28 07:11:06;;;;;;;7.60;3.90;;;;;;;19.88;52.20;102033.00;6123235;23;20012;-56
2023/05/28 07:13:31;;;;;;;8.15;3.97;;;;;;;19.88;52.38;102033.00;6123235;23;20006;-56
2023/05/28 07:15:57;;;;;;;9.32;4.00;;;;;;;19.88;52.27;102027.59;6124533;23;20483;-56
2023/05/28 07:18:23;;;;;;;7.57;3.80;;;;;;;19.89;52.31;102034.69;6125343;23;20329;-56
2023/05/28 07:20:49;;;;;;;6.85;4.05;;;;;;;19.88;52.48;102038.41;6124924;23;20013;-55
2023/05/28 07:23:14;;;;;;;8.70;3.92;;;;;;;19.89;52.29;102044.66;6124419;23;20009;-56
2023/05/28 07:25:42;;;;;;;10.77;3.85;;;;;;;19.89;52.51;102045.50;6124752;23;20337;-55
2023/05/28 07:28:08;;;;;;;7.72;3.50;;;;;;;19.89;52.27;102050.91;6124263;23;20073;-55
2023/05/28 07:30:33;;;;;;;9.43;4.05;;;;;;;19.88;52.28;102051.94;6125052;23;20005;-56
2023/05/28 07:32:58;;;;;;;7.45;3.63;;;;;;;19.90;52.35;102049.94;6124741;23;20084;-56
2023/05/28 07:35:24;;;;;;;7.68;3.67;;;;;;;19.90;52.41;102052.66;6124684;23;20369;-56
2023/05/28 07:37:50;;;;;;;11.10;3.72;;;;;;;19.90;52.21;102044.53;6124483;23;20013;-56
2023/05/28 07:40:15;;;;;;;8.43;3.35;;;;;;;19.90;52.59;102058.06;6124369;23;20128;-56
2023/05/28 07:42:41;;;;;;;7.85;4.00;;;;;;;19.90;52.43;102055.34;6124294;23;20009;-56
2023/05/28 07:45:07;;;;;;;5.85;3.30;;;;;;;19.91;52.19;102048.97;6124386;23;20393;-56
2023/05/28 07:47:33;;;;;;;8.63;4.15;;;;;;;19.90;51.92;102051.81;6124145;23;20044;-56
2023/05/28 07:49:58;;;;;;;7.25;3.65;;;;;;;19.91;52.07;102051.69;6124164;23;20010;-56
2023/05/28 07:52:25;;;;;;;9.00;3.75;;;;;;;19.91;52.08;102051.69;6124801;23;20010;-56
2023/05/28 07:54:51;;;;;;;7.47;4.30;;;;;;;19.90;52.08;102058.06;6124996;23;20014;-56
2023/05/28 07:57:16;;;;;;;8.65;4.18;;;;;;;19.90;52.21;102058.06;6124446;23;20017;-56
2023/05/28 07:59:42;;;;;;;12.48;4.43;;;;;;;19.90;52.40;102058.06;6098848;23;20010;-56
2023/05/28 08:02:07;;;;;;;11.90;4.38;;;;;;;19.90;52.59;102058.06;6124060;23;20033;-56
2023/05/28 08:04:33;;;;;;;8.93;4.00;;;;;;;19.90;52.24;102052.66;6124349;23;20037;-56
2023/05/28 08:06:58;;;;;;;8.27;3.70;;;;;;;19.91;52.08;102056.19;6123917;23;20036;-56
2023/05/28 08:09:23;;;;;;;9.35;4.45;;;;;;;19.90;52.51;102058.06;6124592;23;20005;-56
2023/05/28 08:11:49;;;;;;;6.50;3.30;;;;;;;19.90;52.69;102060.75;6124068;23;20010;-56
2023/05/28 08:14:15;;;;;;;7.60;3.60;;;;;;;19.90;52.81;102054.50;6123850;23;20417;-56
2023/05/28 08:16:40;;;;;;;7.80;3.72;;;;;;;19.91;52.52;102048.97;6124033;23;20002;-56
2023/05/28 08:19:06;;;;;;;6.28;3.80;;;;;;;19.91;52.76;102048.97;6123911;23;20013;-56
2023/05/28 08:21:31;;;;;;;9.73;4.35;;;;;;;19.91;52.52;102048.97;6124051;23;20036;-56
2023/05/28 08:23:56;;;;;;;8.48;3.45;;;;;;;19.91;52.77;102043.56;6098105;23;20010;-56
2023/05/28 08:26:22;;;;;;;7.47;4.40;;;;;;;19.92;52.70;102042.56;6124507;23;20002;-56
2023/05/28 08:28:47;;;;;;;6.30;3.80;;;;;;;19.94;52.92;102041.59;6123746;23;20018;-56
2023/05/28 08:31:13;;;;;;;10.65;4.10;;;;;;;19.94;52.53;102037.03;6123952;23;20333;-56
2023/05/28 08:33:38;;;;;;;6.32;3.72;;;;;;;19.95;52.89;102037.88;6124169;23;20041;-56
2023/05/28 08:36:04;;;;;;;8.30;3.63;;;;;;;19.95;52.68;102027.06;6124357;23;20030;-56
2023/05/28 08:38:29;;;;;;;7.78;4.15;;;;;;;19.95;52.95;102035.19;6097679;23;20056;-56
2023/05/28 08:40:56;;;;;;;8.65;4.05;;;;;;;19.96;52.68;102034.22;6124635;23;20014;-56
2023/05/28 08:43:22;;;;;;;9.38;3.85;;;;;;;19.96;52.93;102036.91;6124503;23;20025;-56
2023/05/28 08:45:51;;;;;;;9.73;4.28;;;;;;;19.96;52.79;102039.63;6123943;23;20014;-56
2023/05/28 08:48:17;;;;;;;7.18;3.75;;;;;;;19.96;52.74;102032.34;6124056;23;20064;-56
2023/05/28 08:50:48;;;;;;;8.23;3.80;;;;;;;19.97;52.96;102034.09;6123713;23;20369;-56
2023/05/28 08:53:17;;;;;;;5.97;3.90;;;;;;;19.99;52.77;102033.94;6123474;23;20002;-56
2023/05/28 08:55:44;;;;;;;6.32;3.38;;;;;;;19.99;52.90;102042.03;6124041;23;20044;-56
2023/05/28 08:58:10;;;;;;;6.05;3.72;;;;;;;20.00;52.76;102030.25;6123730;23;20457;-56
2023/05/28 09:00:37;;;;;;;8.15;3.78;;;;;;;19.99;52.70;102034.81;6123676;23;20005;-56
2023/05/28 09:03:07;;;;;;;8.52;4.05;;;;;;;20.01;52.80;102031.94;6123995;23;20057;-56
2023/05/28 09:05:39;;;;;;;6.43;3.22;;;;;;;20.01;52.95;102027.41;6123544;23;20013;-56
2023/05/28 09:08:07;;;;;;;10.63;3.50;;;;;;;20.01;52.83;102029.25;6097864;23;20002;-56
2023/05/28 09:10:33;;;;;;;8.27;4.30;;;;;;;20.02;52.77;102023.72;6123483;23;20025;-56
2023/05/28 09:13:00;;;;;;;6.60;3.83;;;;;;;20.02;52.70;102018.31;6123620;23;20085;-55
2023/05/28 09:15:25;;;;;;;7.05;3.63;;;;;;;20.04;52.78;102015.47;6124207;23;20413;-56
2023/05/28 09:17:51;;;;;;;4.72;3.10;;;;;;;20.04;52.91;102007.38;6123736;23;20005;-56
2023/05/28 09:20:16;;;;;;;4.93;2.97;;;;;;;20.05;52.78;102019.91;6125192;23;20477;-56
2023/05/28 09:22:43;;;;;;;5.03;3.53;;;;;;;20.05;52.84;102017.22;6125516;23;20016;-56
2023/05/28 09:25:09;;;;;;;7.65;3.88;;;;;;;20.06;52.71;101999.97;6125837;23;20056;-56
2023/05/28 09:27:36;;;;;;;6.63;3.40;;;;;;;20.06;52.54;102002.69;6125527;23;20050;-56
2023/05/28 09:30:05;;;;;;;8.52;3.40;;;;;;;20.08;52.46;102011.50;6125703;23;20321;-56
2023/05/28 09:32:33;;;;;;;7.30;3.35;;;;;;;20.08;52.46;102006.09;6125396;23;20084;-56
2023/05/28 09:34:58;;;;;;;8.07;3.63;;;;;;;20.08;52.43;102011.50;6126028;23;20016;-56
2023/05/28 09:37:27;;;;;;;5.53;3.20;;;;;;;20.09;52.42;102015.94;6125725;23;20014;-56
2023/05/28 09:40:01;;;;;;;6.57;3.72;;;;;;;20.09;52.20;102002.44;6125762;23;20013;-56
2023/05/28 09:42:33;;;;;;;6.82;4.10;;;;;;;20.10;52.23;102012.25;6125993;23;20002;-56
2023/05/28 09:45:00;;;;;;;5.43;3.70;;;;;;;20.11;52.26;102005.84;6126236;23;20444;-56
2023/05/28 09:47:25;;;;;;;6.13;3.45;;;;;;;20.10;52.12;102007.72;6125684;23;20024;-56
2023/05/28 09:49:51;;;;;;;5.70;2.97;;;;;;;20.11;52.34;101998.59;6124938;23;20010;-56
2023/05/28 09:52:19;;;;;;;8.70;3.40;;;;;;;20.11;52.37;102004.00;6125234;23;20010;-56
2023/05/28 09:54:50;;;;;;;6.45;3.50;;;;;;;20.13;52.38;102013.84;6125357;23;20017;-56
2023/05/28 09:57:17;;;;;;;3.95;2.85;;;;;;;20.13;52.07;101995.75;6125176;23;20006;-56
2023/05/28 09:59:45;;;;;;;4.65;3.17;;;;;;;20.13;52.26;101995.75;6125448;23;20006;-56
2023/05/28 10:02:17;;;;;;;8.90;3.22;;;;;;;20.15;52.03;101995.63;6125258;23;20033;-56
2023/05/28 10:04:44;;;;;;;5.63;3.20;;;;;;;20.15;52.23;101998.34;6125159;23;20013;-56
2023/05/28 10:07:13;;;;;;;6.63;3.30;;;;;;;20.16;52.04;102003.59;6125238;23;20444;-56
2023/05/28 10:09:40;;;;;;;8.25;3.05;;;;;;;20.16;51.99;102003.59;6125205;23;20386;-56
2023/05/28 10:12:22;;;;;;;9.98;3.33;;;;;;;20.18;52.11;102000.75;6125057;23;20010;-57
2023/05/28 10:14:49;;;;;;;5.93;3.30;;;;;;;20.18;52.15;101996.22;6124524;23;20002;-56
2023/05/28 10:17:17;;;;;;;6.00;3.03;;;;;;;20.17;52.50;102002.63;6124456;23;20006;-56
2023/05/28 10:19:45;;;;;;;6.32;3.35;;;;;;;20.18;51.97;102000.75;6124572;23;20414;-56
2023/05/28 10:22:12;;;;;;;6.63;3.45;;;;;;;20.19;52.19;101997.94;6123886;23;20037;-56
2023/05/28 10:24:37;;;;;;;8.48;3.55;;;;;;;20.19;52.17;102003.34;6124566;23;20369;-56
2023/05/28 10:27:06;;;;;;;5.82;2.78;;;;;;;20.21;52.38;102005.91;6124515;23;20014;-56
2023/05/28 10:29:42;;;;;;;8.15;3.30;;;;;;;20.22;51.87;102008.50;6125301;23;20017;-56
2023/05/28 10:32:08;;;;;;;6.22;3.67;;;;;;;20.22;52.32;101997.69;6125287;23;20006;-56
2023/05/28 10:34:36;;;;;;;9.95;3.45;;;;;;;20.23;52.10;101998.53;6125049;23;20022;-56
2023/05/28 10:37:09;;;;;;;7.30;3.38;;;;;;;20.23;52.30;101993.13;6125226;23;20450;-56
2023/05/28 10:39:38;;;;;;;7.82;3.33;;;;;;;20.22;52.17;101992.28;6124955;23;20013;-56
2023/05/28 10:42:08;;;;;;;7.45;3.33;;;;;;;20.24;51.63;102000.25;6125146;23;20062;-56
2023/05/28 10:45:12;;;;;;;5.00;2.60;;;;;;;20.27;51.90;102005.38;6099678;23;20425;-56
2023/05/28 10:47:40;;;;;;;5.78;3.28;;;;;;;20.25;51.99;102002.78;6124791;23;20008;-56
2023/05/28 10:50:08;;;;;;;4.40;3.17;;;;;;;20.26;51.77;102009.09;6098839;23;20006;-57
2023/05/28 10:52:35;;;;;;;6.80;3.58;;;;;;;20.26;51.87;102006.38;6124379;23;20073;-56
2023/05/28 10:55:06;;;;;;;6.50;3.15;;;;;;;20.26;52.14;102009.94;6119870;23;20026;-56
2023/05/28 10:57:47;;;;;;;7.03;2.95;;;;;;;20.28;52.26;102015.22;6125325;23;20085;-56
2023/05/28 11:00:21;;;;;;;;;;;;;;;20.35;51.94;102010.97;6124688;23;20333;-56
2023/05/28 11:02:51;;;;;;;5.00;2.85;;;;;;;20.30;51.94;102005.97;6124078;23;20312;-56
2023/05/28 11:05:17;;;;;;;7.13;3.22;;;;;;;20.29;52.42;102003.41;6124655;23;20009;-56
2023/05/28 11:07:42;;;;;;;5.00;2.88;;;;;;;20.31;52.39;102010.41;6123931;23;20010;-56
2023/05/28 11:10:14;;;;;;;10.02;3.08;;;;;;;20.31;52.34;102005.00;6124102;23;20006;-56
2023/05/28 11:12:40;;;;;;;6.32;2.88;;;;;;;20.30;52.00;102011.38;6124040;23;20017;-56
2023/05/28 11:15:08;;;;;;;7.63;3.28;;;;;;;20.33;52.11;102009.41;6123838;23;20014;-56
2023/05/28 11:17:41;;;;;;;11.77;3.50;;;;;;;20.32;52.12;102008.53;6124205;23;20014;-56
2023/05/28 11:20:25;;;;;;;8.57;3.40;;;;;;;20.34;51.68;102011.13;6124000;23;20302;-56